createdAt,value
2022-12-15T00:00:17.683Z,0.04
2022-12-15T00:03:26.028Z,0.17
2022-12-15T00:06:13.020Z,-0.04
2022-12-15T00:08:59.019Z,0.02
2022-12-15T00:11:45.642Z,0.48
2022-12-15T00:14:31.211Z,0.67
2022-12-15T00:17:16.382Z,0.79
2022-12-15T00:20:01.864Z,0.90
2022-12-15T00:22:47.376Z,0.95
2022-12-15T00:25:33.696Z,-0.52
2022-12-15T00:28:20.292Z,-0.67
2022-12-15T00:31:05.715Z,-0.86
2022-12-15T00:33:51.659Z,-0.54
2022-12-15T00:36:37.288Z,-0.37
2022-12-15T00:39:04.317Z,-0.48
2022-12-15T00:41:31.256Z,-0.71
2022-12-15T00:43:59.566Z,-0.35
2022-12-15T00:46:44.814Z,-0.33
2022-12-15T00:49:31.643Z,-0.40
2022-12-15T00:52:17.083Z,-0.29
2022-12-15T00:55:02.233Z,-0.23
2022-12-15T00:57:47.732Z,-0.17
2022-12-15T01:00:35.155Z,-0.17
2022-12-15T01:03:34.375Z,-0.20
2022-12-15T01:06:28.533Z,-0.98
2022-12-15T01:09:15.227Z,-1.47
2022-12-15T01:12:02.335Z,-1.12
2022-12-15T01:14:49.928Z,-1.51
2022-12-15T01:17:38.252Z,-2.27
2022-12-15T01:20:17.519Z,-1.58
2022-12-15T01:22:52.875Z,-1.40
2022-12-15T01:25:23.681Z,-1.14
2022-12-15T01:27:51.219Z,-1.48
2022-12-15T01:30:23.640Z,-1.75
2022-12-15T01:32:50.326Z,-2.14
2022-12-15T01:35:19.083Z,-2.72
2022-12-15T01:37:46.258Z,-2.81
2022-12-15T01:40:39.459Z,-2.29
2022-12-15T01:43:20.317Z,-1.76
2022-12-15T01:46:04.061Z,-2.62
2022-12-15T01:48:33.537Z,-2.16
2022-12-15T01:51:31.169Z,-2.46
2022-12-15T01:54:20.401Z,-3.36
2022-12-15T01:56:52.345Z,-3.14
2022-12-15T01:59:30.717Z,-3.33
2022-12-15T02:01:59.311Z,-3.57
2022-12-15T02:04:26.696Z,-3.41
2022-12-15T02:06:53.315Z,-2.95
2022-12-15T02:09:26.619Z,-2.59
2022-12-15T02:12:02.788Z,-2.58
2022-12-15T02:15:04.138Z,-1.99
2022-12-15T02:17:55.298Z,-1.83
2022-12-15T02:20:40.055Z,-1.43
2022-12-15T02:23:38.657Z,-1.65
2022-12-15T02:26:14.381Z,-2.11
2022-12-15T02:29:04.925Z,-1.55
2022-12-15T02:31:54.335Z,-0.83
2022-12-15T02:34:49.537Z,-0.76
2022-12-15T02:37:34.011Z,-0.53
2022-12-15T02:40:03.964Z,-1.24
2022-12-15T02:42:35.592Z,-1.06
2022-12-15T02:45:19.293Z,-0.47
2022-12-15T02:48:36.795Z,-0.31
2022-12-15T02:51:44.005Z,-0.17
2022-12-15T02:55:16.782Z,-1.58
2022-12-15T02:58:13.547Z,-2.23
2022-12-15T03:00:52.784Z,-2.66
2022-12-15T03:03:22.332Z,-3.20
2022-12-15T03:05:54.329Z,-3.37
2022-12-15T03:08:21.661Z,-3.48
2022-12-15T03:10:52.467Z,-3.98
2022-12-15T03:13:21.178Z,-4.69
2022-12-15T03:15:51.783Z,-4.64
2022-12-15T03:18:19.073Z,-4.88
2022-12-15T03:20:45.551Z,-4.61
2022-12-15T03:23:12.021Z,-3.27
2022-12-15T03:25:38.395Z,-1.87
2022-12-15T03:28:05.025Z,-1.46
2022-12-15T03:30:31.374Z,-0.71
2022-12-15T03:32:58.445Z,-0.14
2022-12-15T03:35:25.546Z,0.09
2022-12-15T03:37:52.276Z,0.30
2022-12-15T03:40:18.696Z,0.87
2022-12-15T03:42:48.215Z,1.12
2022-12-15T03:45:23.987Z,0.77
2022-12-15T03:47:51.702Z,0.27
2022-12-15T03:50:23.116Z,0.42
2022-12-15T03:53:01.743Z,0.30
2022-12-15T03:55:30.223Z,-0.23
2022-12-15T03:57:58.683Z,-0.74
2022-12-15T04:00:25.747Z,-1.19
2022-12-15T04:02:52.952Z,-0.73
2022-12-15T04:05:32.762Z,-0.42
2022-12-15T04:08:01.145Z,-0.27
2022-12-15T04:10:34.354Z,-0.38
2022-12-15T04:13:09.435Z,-0.27
2022-12-15T04:15:39.263Z,-0.25
2022-12-15T04:18:10.451Z,-0.26
2022-12-15T04:20:39.590Z,-0.97
2022-12-15T04:23:07.139Z,-1.85
2022-12-15T04:25:54.012Z,-1.84
2022-12-15T04:28:40.357Z,-1.48
2022-12-15T04:31:35.976Z,-2.42
2022-12-15T04:34:28.493Z,-2.68
2022-12-15T04:37:14.213Z,-3.50
2022-12-15T04:40:05.946Z,-2.90
2022-12-15T04:42:58.624Z,-3.57
2022-12-15T04:45:43.810Z,-3.36
2022-12-15T04:48:29.411Z,-3.73
2022-12-15T04:51:14.414Z,-3.75
2022-12-15T04:54:03.091Z,-4.00
2022-12-15T04:56:50.137Z,-3.44
2022-12-15T04:59:36.145Z,-2.20
2022-12-15T05:02:22.163Z,-1.54
2022-12-15T05:05:07.915Z,-1.81
2022-12-15T05:07:55.580Z,-1.09
2022-12-15T05:10:40.677Z,-0.69
2022-12-15T05:13:26.987Z,-0.93
2022-12-15T05:16:12.683Z,-0.54
2022-12-15T05:19:00.315Z,-1.03
2022-12-15T05:21:46.256Z,-0.64
2022-12-15T05:24:32.947Z,-0.66
2022-12-15T05:27:18.556Z,-1.18
2022-12-15T05:30:04.959Z,-1.47
2022-12-15T05:32:32.945Z,-1.78
2022-12-15T05:35:00.837Z,-1.82
2022-12-15T05:37:27.779Z,-2.26
2022-12-15T05:39:54.377Z,-2.10
2022-12-15T05:42:21.295Z,-1.76
2022-12-15T05:44:50.178Z,-1.71
2022-12-15T05:47:16.617Z,-2.66
2022-12-15T05:49:43.022Z,-3.47
2022-12-15T05:52:09.536Z,-2.66
2022-12-15T05:54:35.900Z,-1.46
2022-12-15T05:57:09.077Z,-0.57
2022-12-15T05:59:35.585Z,-0.16
2022-12-15T06:02:02.313Z,-0.37
2022-12-15T06:04:29.496Z,-1.68
2022-12-15T06:06:57.539Z,-1.62
2022-12-15T06:09:24.004Z,-1.89
2022-12-15T06:11:51.123Z,-1.69
2022-12-15T06:14:18.731Z,-1.58
2022-12-15T06:16:50.708Z,-0.38
2022-12-15T06:19:21.588Z,0.22
2022-12-15T06:21:48.529Z,0.36
2022-12-15T06:24:15.413Z,0.40
2022-12-15T06:26:43.665Z,0.15
2022-12-15T06:29:12.632Z,-0.11
2022-12-15T06:31:40.450Z,-0.26
2022-12-15T06:34:12.349Z,-0.05
2022-12-15T06:36:40.112Z,0.23
2022-12-15T06:39:10.487Z,-0.12
2022-12-15T06:41:37.466Z,-0.14
2022-12-15T06:44:06.276Z,-0.17
2022-12-15T06:46:35.602Z,-0.40
2022-12-15T06:49:03.518Z,-0.45
2022-12-15T06:51:30.124Z,-0.61
2022-12-15T06:53:56.652Z,-0.50
2022-12-15T06:56:35.387Z,-0.45
2022-12-15T06:59:08.180Z,-0.61
2022-12-15T07:01:37.954Z,-0.38
2022-12-15T07:04:05.251Z,-0.25
2022-12-15T07:06:37.092Z,-1.59
2022-12-15T07:09:13.080Z,-1.85
2022-12-15T07:11:40.417Z,-2.52
2022-12-15T07:14:07.471Z,-2.63
2022-12-15T07:16:34.175Z,-1.84
2022-12-15T07:19:00.758Z,-0.83
2022-12-15T07:21:27.348Z,-1.07
2022-12-15T07:23:58.129Z,-1.27
2022-12-15T07:26:26.481Z,-1.45
2022-12-15T07:28:54.146Z,-1.56
2022-12-15T07:31:23.437Z,-1.87
2022-12-15T07:33:52.219Z,-2.04
2022-12-15T07:36:19.977Z,-2.10
2022-12-15T07:38:50.799Z,-2.41
2022-12-15T07:41:20.996Z,-2.23
2022-12-15T07:43:48.435Z,-2.10
2022-12-15T07:46:17.401Z,-1.45
2022-12-15T07:48:50.513Z,-1.32
2022-12-15T07:51:20.149Z,-1.07
2022-12-15T07:53:49.804Z,-0.73
2022-12-15T07:56:20.174Z,-0.37
2022-12-15T07:58:50.156Z,-0.15
2022-12-15T08:01:17.110Z,0.45
2022-12-15T08:03:47.150Z,0.94
2022-12-15T08:06:15.137Z,1.41
2022-12-15T08:08:44.345Z,1.76
2022-12-15T08:11:14.261Z,1.66
2022-12-15T08:16:29.765Z,0.97
2022-12-15T08:18:58.228Z,0.87
2022-12-15T08:21:25.787Z,0.91
2022-12-15T08:23:53.464Z,0.84
2022-12-15T08:26:25.032Z,1.04
2022-12-15T08:28:57.103Z,1.32
2022-12-15T08:31:27.291Z,1.60
2022-12-15T08:33:54.547Z,1.95
2022-12-15T08:36:21.163Z,2.25
2022-12-15T08:38:49.308Z,1.76
2022-12-15T08:41:26.642Z,1.16
2022-12-15T08:43:55.993Z,1.53
2022-12-15T08:46:34.327Z,1.62
2022-12-15T08:49:04.269Z,1.78
2022-12-15T08:51:33.244Z,1.74
2022-12-15T08:54:01.233Z,1.57
2022-12-15T08:56:29.189Z,1.64
2022-12-15T08:59:01.507Z,1.31
2022-12-15T09:01:31.867Z,1.39
2022-12-15T09:04:01.973Z,1.31
2022-12-15T09:06:34.629Z,0.90
2022-12-15T09:09:10.429Z,0.85
2022-12-15T09:11:40.380Z,0.66
2022-12-15T09:14:07.510Z,0.57
2022-12-15T09:16:36.438Z,-0.13
2022-12-15T09:19:04.284Z,-1.54
2022-12-15T09:21:32.413Z,-1.62
2022-12-15T09:24:04.649Z,-1.70
2022-12-15T09:26:34.459Z,-1.68
2022-12-15T09:29:04.285Z,-2.00
2022-12-15T09:31:37.616Z,-1.75
2022-12-15T09:34:04.174Z,-1.15
2022-12-15T09:36:32.597Z,-1.73
2022-12-15T09:39:01.951Z,-2.52
2022-12-15T09:41:35.123Z,-2.95
2022-12-15T09:44:13.853Z,-3.15
2022-12-15T09:47:06.001Z,-3.11
2022-12-15T09:49:58.541Z,-2.36
2022-12-15T09:52:30.734Z,-1.54
2022-12-15T09:55:03.354Z,-0.73
2022-12-15T09:58:10.637Z,0.16
2022-12-15T10:00:59.315Z,0.93
2022-12-15T10:04:04.914Z,1.33
2022-12-15T10:06:52.573Z,1.48
2022-12-15T10:09:38.149Z,1.16
2022-12-15T10:12:21.453Z,1.47
2022-12-15T10:15:08.517Z,1.77
2022-12-15T10:17:51.653Z,1.80
2022-12-15T10:20:31.514Z,1.43
2022-12-15T10:23:19.226Z,1.40
2022-12-15T10:26:11.402Z,1.62
2022-12-15T10:28:52.530Z,1.88
2022-12-15T10:31:34.907Z,2.02
2022-12-15T10:34:16.558Z,2.06
2022-12-15T10:36:50.823Z,1.86
2022-12-15T10:39:18.923Z,1.45
2022-12-15T10:41:46.626Z,1.37
2022-12-15T10:44:31.868Z,1.55
2022-12-15T10:47:14.271Z,1.92
2022-12-15T10:49:40.864Z,2.25
2022-12-15T10:52:33.851Z,2.47
2022-12-15T10:55:02.145Z,2.69
2022-12-15T10:57:31.137Z,2.73
2022-12-15T11:00:13.067Z,2.68
2022-12-15T11:02:41.589Z,2.84
2022-12-15T11:05:15.095Z,2.93
2022-12-15T11:07:43.854Z,2.71
2022-12-15T11:10:51.011Z,2.27
2022-12-15T11:13:23.427Z,2.24
2022-12-15T11:15:58.484Z,2.32
2022-12-15T11:18:58.513Z,2.43
2022-12-15T11:21:56.027Z,2.11
2022-12-15T11:24:43.235Z,1.85
2022-12-15T11:27:38.351Z,1.58
2022-12-15T11:30:18.524Z,1.82
2022-12-15T11:33:00.876Z,1.97
2022-12-15T11:35:59.120Z,2.27
2022-12-15T11:38:49.930Z,2.39
2022-12-15T11:41:53.065Z,2.50
2022-12-15T11:45:09.094Z,2.71
2022-12-15T11:47:55.670Z,2.12
2022-12-15T11:51:02.346Z,2.04
2022-12-15T11:55:01.697Z,2.36
2022-12-15T11:58:24.535Z,2.50
2022-12-15T12:01:26.692Z,2.08
2022-12-15T12:04:31.866Z,1.70
2022-12-15T12:07:17.117Z,1.44
2022-12-15T12:10:33.716Z,0.98
2022-12-15T12:13:41.406Z,0.93
2022-12-15T12:16:56.925Z,0.88
2022-12-15T12:19:54.368Z,1.17
2022-12-15T12:22:27.720Z,1.64
2022-12-15T12:25:04.431Z,1.93
2022-12-15T12:27:42.332Z,2.22
2022-12-15T12:30:19.424Z,1.27
2022-12-15T12:33:05.086Z,-0.16
2022-12-15T12:35:59.982Z,-0.69
2022-12-15T12:38:38.608Z,-0.10
2022-12-15T12:41:27.076Z,0.55
2022-12-15T12:44:06.618Z,0.93
2022-12-15T12:46:46.862Z,1.12
2022-12-15T12:49:35.460Z,1.12
2022-12-15T12:52:18.726Z,1.41
2022-12-15T12:54:57.833Z,1.54
2022-12-15T12:57:38.106Z,1.70
2022-12-15T13:00:07.387Z,2.04
2022-12-15T13:02:40.097Z,2.38
2022-12-15T13:05:35.861Z,2.58
2022-12-15T13:08:05.557Z,2.73
2022-12-15T13:10:37.624Z,2.80
2022-12-15T13:13:28.495Z,2.97
2022-12-15T13:16:20.169Z,3.14
2022-12-15T13:19:14.890Z,3.21
2022-12-15T13:21:44.949Z,3.27
2022-12-15T13:24:35.531Z,3.40
2022-12-15T13:27:08.480Z,3.55
2022-12-15T13:29:55.187Z,3.62
2022-12-15T13:32:35.731Z,3.50
2022-12-15T13:35:31.567Z,3.35
2022-12-15T13:38:06.824Z,3.35
2022-12-15T13:40:36.421Z,3.50
2022-12-15T13:43:05.664Z,3.63
2022-12-15T13:46:00.575Z,3.78
2022-12-15T13:48:40.907Z,3.82
2022-12-15T13:51:38.197Z,3.81
2022-12-15T13:54:27.795Z,3.72
2022-12-15T13:57:06.521Z,3.72
2022-12-15T13:59:32.813Z,2.82
2022-12-15T14:02:00.084Z,2.76
2022-12-15T14:04:29.617Z,2.76
2022-12-15T14:07:01.277Z,2.71
2022-12-15T14:09:32.345Z,2.62
2022-12-15T14:12:06.518Z,2.48
2022-12-15T14:14:37.483Z,2.58
2022-12-15T14:17:13.146Z,2.54
2022-12-15T14:19:50.951Z,2.69
2022-12-15T14:22:31.059Z,2.69
2022-12-15T14:25:19.058Z,2.76
2022-12-15T14:27:45.761Z,2.97
2022-12-15T14:30:35.076Z,3.17
2022-12-15T14:33:10.362Z,3.41
2022-12-15T14:35:50.043Z,3.36
2022-12-15T14:38:35.255Z,3.18
2022-12-15T14:41:05.531Z,2.64
2022-12-15T14:43:38.966Z,2.10
2022-12-15T14:46:26.511Z,1.63
2022-12-15T14:49:16.379Z,1.66
2022-12-15T14:51:52.255Z,1.76
2022-12-15T14:54:37.349Z,2.03
2022-12-15T14:57:37.897Z,2.18
2022-12-15T15:00:35.246Z,1.55
2022-12-15T15:03:18.273Z,0.75
2022-12-15T15:06:18.128Z,1.10
2022-12-15T15:08:50.880Z,1.34
2022-12-15T15:11:34.686Z,1.69
2022-12-15T15:14:18.480Z,1.95
2022-12-15T15:17:04.483Z,2.02
2022-12-15T15:19:39.050Z,2.11
2022-12-15T15:22:59.049Z,2.37
2022-12-15T15:25:40.028Z,2.28
2022-12-15T15:28:18.858Z,2.19
2022-12-15T15:30:51.410Z,1.81
2022-12-15T15:33:25.787Z,1.69
2022-12-15T15:35:59.849Z,1.95
2022-12-15T15:38:40.300Z,2.10
2022-12-15T15:41:26.102Z,2.01
2022-12-15T15:44:03.887Z,1.51
2022-12-15T15:46:48.405Z,0.44
2022-12-15T15:49:22.466Z,-0.59
2022-12-15T15:51:49.669Z,-0.61
2022-12-15T15:54:26.800Z,-0.48
2022-12-15T15:56:54.678Z,0.02
2022-12-15T15:59:24.700Z,0.24
2022-12-15T16:01:55.599Z,0.32
2022-12-15T16:04:24.498Z,0.30
2022-12-15T16:06:53.477Z,0.14
2022-12-15T16:09:20.803Z,0.43
2022-12-15T16:11:58.210Z,0.93
2022-12-15T16:14:29.718Z,1.38
2022-12-15T16:17:02.671Z,1.78
2022-12-15T16:19:30.228Z,1.83
2022-12-15T16:22:00.089Z,1.57
2022-12-15T16:24:29.065Z,1.71
2022-12-15T16:26:57.023Z,1.37
2022-12-15T16:29:23.675Z,1.41
2022-12-15T16:31:51.867Z,1.68
2022-12-15T16:34:24.160Z,1.92
2022-12-15T16:37:08.808Z,2.24
2022-12-15T16:39:35.878Z,2.36
2022-12-15T16:42:03.891Z,2.57
2022-12-15T16:44:32.157Z,2.49
2022-12-15T16:47:02.175Z,2.36
2022-12-15T16:49:33.981Z,2.29
2022-12-15T16:52:07.863Z,1.90
2022-12-15T16:54:36.704Z,2.03
2022-12-15T16:57:11.251Z,2.01
2022-12-15T16:59:37.736Z,1.83
2022-12-15T17:02:38.616Z,1.71
2022-12-15T17:05:07.025Z,1.22
2022-12-15T17:07:38.212Z,-0.14
2022-12-15T17:10:06.175Z,-0.94
2022-12-15T17:12:36.507Z,-1.61
2022-12-15T17:15:17.050Z,-2.18
2022-12-15T17:17:47.573Z,-1.94
2022-12-15T17:20:29.240Z,-2.21
2022-12-15T17:23:23.319Z,-1.66
2022-12-15T17:28:40.203Z,-0.43
2022-12-15T17:31:20.788Z,0.25
2022-12-15T17:33:49.866Z,0.59
2022-12-15T17:36:28.902Z,0.75
2022-12-15T17:39:01.539Z,0.66
2022-12-15T17:41:58.085Z,0.94
2022-12-15T17:44:48.456Z,1.37
2022-12-15T17:47:16.159Z,1.83
2022-12-15T17:49:43.564Z,2.09
2022-12-15T17:52:33.789Z,2.24
2022-12-15T17:55:04.134Z,2.23
2022-12-15T17:57:32.752Z,2.07
2022-12-15T18:00:01.706Z,1.91
2022-12-15T18:02:28.655Z,1.90
2022-12-15T18:04:55.405Z,2.02
2022-12-15T18:07:25.003Z,2.08
2022-12-15T18:09:55.142Z,1.99
2022-12-15T18:12:27.688Z,2.16
2022-12-15T18:14:58.751Z,2.19
2022-12-15T18:17:28.463Z,2.30
2022-12-15T18:19:56.854Z,2.27
2022-12-15T18:22:24.427Z,2.00
2022-12-15T18:24:55.129Z,1.70
2022-12-15T18:27:30.483Z,1.10
2022-12-15T18:29:59.682Z,1.37
2022-12-15T18:32:29.375Z,1.35
2022-12-15T18:34:59.637Z,0.96
2022-12-15T18:37:28.617Z,1.28
2022-12-15T18:39:58.222Z,1.37
2022-12-15T18:42:31.954Z,1.07
2022-12-15T18:44:59.772Z,1.32
2022-12-15T18:47:27.002Z,1.28
2022-12-15T18:50:01.719Z,0.90
2022-12-15T18:52:36.853Z,0.99
2022-12-15T18:55:16.455Z,1.30
2022-12-15T18:57:53.353Z,1.52
2022-12-15T19:00:29.653Z,1.73
2022-12-15T19:03:02.197Z,1.75
2022-12-15T19:05:32.092Z,1.72
2022-12-15T19:08:09.777Z,1.10
2022-12-15T19:10:48.003Z,1.07
2022-12-15T19:13:21.924Z,1.43
2022-12-15T19:15:50.362Z,1.78
2022-12-15T19:18:38.436Z,2.11
2022-12-15T19:21:44.586Z,2.39
2022-12-15T19:24:18.743Z,2.60
2022-12-15T19:26:45.449Z,2.59
2022-12-15T19:29:24.252Z,2.62
2022-12-15T19:31:55.177Z,2.70
2022-12-15T19:34:23.995Z,2.61
2022-12-15T19:36:51.036Z,1.88
2022-12-15T19:39:25.801Z,0.88
2022-12-15T19:41:54.093Z,-0.51
2022-12-15T19:44:25.534Z,-1.55
2022-12-15T19:46:53.369Z,-1.12
2022-12-15T19:49:23.113Z,-0.62
2022-12-15T19:51:50.770Z,-0.11
2022-12-15T19:54:21.812Z,0.34
2022-12-15T19:56:55.675Z,0.55
2022-12-15T19:59:27.545Z,0.68
2022-12-15T20:02:00.306Z,1.02
2022-12-15T20:04:30.219Z,1.35
2022-12-15T20:07:04.589Z,1.12
2022-12-15T20:09:32.400Z,0.82
2022-12-15T20:12:04.235Z,0.72
2022-12-15T20:14:32.869Z,0.58
2022-12-15T20:16:59.805Z,0.46
2022-12-15T20:19:31.699Z,0.63
2022-12-15T20:21:58.381Z,0.84
2022-12-15T20:24:27.230Z,0.61
2022-12-15T20:26:55.018Z,0.72
2022-12-15T20:29:30.570Z,1.13
2022-12-15T20:31:59.328Z,1.38
2022-12-15T20:34:26.855Z,1.60
2022-12-15T20:36:54.132Z,1.86
2022-12-15T20:39:28.724Z,1.98
2022-12-15T20:41:56.718Z,2.02
2022-12-15T20:44:23.996Z,1.92
2022-12-15T20:46:51.268Z,1.97
2022-12-15T20:49:21.801Z,1.96
2022-12-15T20:51:51.883Z,1.95
2022-12-15T20:54:27.790Z,2.05
2022-12-15T20:56:56.987Z,2.13
2022-12-15T20:59:23.822Z,2.18
2022-12-15T21:01:51.138Z,2.21
2022-12-15T21:04:26.876Z,2.27
2022-12-15T21:06:56.921Z,2.32
2022-12-15T21:09:24.564Z,2.32
2022-12-15T21:14:35.471Z,2.36
2022-12-15T21:17:04.172Z,2.49
2022-12-15T21:19:33.715Z,2.45
2022-12-15T21:22:00.850Z,2.26
2022-12-15T21:24:36.439Z,2.09
2022-12-15T21:27:03.727Z,2.09
2022-12-15T21:29:33.217Z,1.88
2022-12-15T21:31:59.707Z,1.52
2022-12-15T21:34:26.187Z,1.35
2022-12-15T21:36:55.234Z,0.60
2022-12-15T21:39:34.754Z,0.44
2022-12-15T21:42:11.401Z,0.67
2022-12-15T21:44:38.478Z,1.02
2022-12-15T21:47:49.114Z,1.30
2022-12-15T21:50:17.504Z,1.53
2022-12-15T21:52:47.581Z,1.64
2022-12-15T21:55:21.646Z,1.79
2022-12-15T21:57:48.846Z,1.89
2022-12-15T22:00:21.340Z,1.92
2022-12-15T22:02:51.745Z,1.71
2022-12-15T22:05:31.876Z,1.49
2022-12-15T22:08:21.850Z,1.52
2022-12-15T22:10:52.068Z,1.64
2022-12-15T22:13:24.079Z,1.76
2022-12-15T22:15:50.614Z,1.90
2022-12-15T22:18:20.650Z,2.02
2022-12-15T22:20:52.122Z,2.09
2022-12-15T22:23:20.052Z,2.16
2022-12-15T22:25:53.673Z,2.20
2022-12-15T22:28:27.214Z,2.18
2022-12-15T22:30:58.549Z,2.29
2022-12-15T22:33:27.549Z,2.31
2022-12-15T22:35:55.734Z,2.00
2022-12-15T22:38:23.662Z,1.55
2022-12-15T22:40:55.719Z,1.53
2022-12-15T22:43:41.660Z,1.41
2022-12-15T22:46:12.896Z,0.48
2022-12-15T22:48:44.034Z,0.15
2022-12-15T22:51:15.566Z,0.42
2022-12-15T22:53:45.386Z,0.52
2022-12-15T22:56:37.976Z,0.43
2022-12-15T22:59:12.145Z,0.32
2022-12-15T23:40:21.541Z,0.21
2022-12-15T23:42:50.148Z,0.76
2022-12-15T23:45:19.997Z,1.00
2022-12-15T23:47:47.585Z,1.13
2022-12-15T23:50:14.082Z,0.46
2022-12-15T23:52:41.994Z,0.28
2022-12-15T23:55:10.509Z,0.36
2022-12-15T23:57:38.729Z,0.35
